sensor_id;sensor_type;location;lat;lon;timestamp;temperature;humidity
3727;DHT22;1879;45.876;12.300;2023-02-15T00:01:20;5.40;99.90
3727;DHT22;1879;45.876;12.300;2023-02-15T00:03:48;5.40;99.90
3727;DHT22;1879;45.876;12.300;2023-02-15T00:06:16;5.30;99.90
3727;DHT22;1879;45.876;12.300;2023-02-15T00:08:44;5.30;99.90
3727;DHT22;1879;45.876;12.300;2023-02-15T00:11:12;5.20;99.90
3727;DHT22;1879;45.876;12.300;2023-02-15T00:13:40;5.20;99.90
3727;DHT22;1879;45.876;12.300;2023-02-15T00:16:09;5.20;99.90
3727;DHT22;1879;45.876;12.300;2023-02-15T00:18:36;5.20;99.90
3727;DHT22;1879;45.876;12.300;2023-02-15T00:21:05;5.10;99.90
3727;DHT22;1879;45.876;12.300;2023-02-15T00:23:33;5.20;99.90
3727;DHT22;1879;45.876;12.300;2023-02-15T00:26:05;5.10;99.90
3727;DHT22;1879;45.876;12.300;2023-02-15T00:28:32;5.00;99.90
3727;DHT22;1879;45.876;12.300;2023-02-15T00:31:06;5.00;99.90
3727;DHT22;1879;45.876;12.300;2023-02-15T00:33:33;5.00;99.90
3727;DHT22;1879;45.876;12.300;2023-02-15T00:36:00;5.00;99.90
3727;DHT22;1879;45.876;12.300;2023-02-15T00:38:28;5.00;99.90
3727;DHT22;1879;45.876;12.300;2023-02-15T00:40:59;5.00;99.90
3727;DHT22;1879;45.876;12.300;2023-02-15T00:43:26;5.00;99.90
3727;DHT22;1879;45.876;12.300;2023-02-15T00:45:54;5.00;99.90
3727;DHT22;1879;45.876;12.300;2023-02-15T00:48:21;4.90;99.90
3727;DHT22;1879;45.876;12.300;2023-02-15T00:50:50;4.90;99.90
3727;DHT22;1879;45.876;12.300;2023-02-15T00:53:17;4.80;99.90
3727;DHT22;1879;45.876;12.300;2023-02-15T00:55:44;4.80;99.90
3727;DHT22;1879;45.876;12.300;2023-02-15T00:58:13;4.80;99.90
3727;DHT22;1879;45.876;12.300;2023-02-15T01:00:43;4.80;99.90
3727;DHT22;1879;45.876;12.300;2023-02-15T01:03:15;4.80;99.90
3727;DHT22;1879;45.876;12.300;2023-02-15T01:05:42;4.80;99.90
3727;DHT22;1879;45.876;12.300;2023-02-15T01:08:09;4.80;99.90
3727;DHT22;1879;45.876;12.300;2023-02-15T01:10:36;4.80;99.90
3727;DHT22;1879;45.876;12.300;2023-02-15T01:13:03;4.80;99.90
3727;DHT22;1879;45.876;12.300;2023-02-15T01:15:34;4.70;99.90
3727;DHT22;1879;45.876;12.300;2023-02-15T01:18:01;4.70;99.90
3727;DHT22;1879;45.876;12.300;2023-02-15T01:20:29;4.70;99.90
3727;DHT22;1879;45.876;12.300;2023-02-15T01:22:57;4.70;99.90
3727;DHT22;1879;45.876;12.300;2023-02-15T01:25:24;4.70;99.90
3727;DHT22;1879;45.876;12.300;2023-02-15T01:27:51;4.70;99.90
3727;DHT22;1879;45.876;12.300;2023-02-15T01:30:18;4.70;99.90
3727;DHT22;1879;45.876;12.300;2023-02-15T01:32:46;4.70;99.90
3727;DHT22;1879;45.876;12.300;2023-02-15T01:35:13;4.60;99.90
3727;DHT22;1879;45.876;12.300;2023-02-15T01:37:40;4.60;99.90
3727;DHT22;1879;45.876;12.300;2023-02-15T01:40:12;4.60;99.90
3727;DHT22;1879;45.876;12.300;2023-02-15T01:42:40;4.60;99.90
3727;DHT22;1879;45.876;12.300;2023-02-15T01:45:22;4.60;99.90
3727;DHT22;1879;45.876;12.300;2023-02-15T01:47:54;4.60;99.90
3727;DHT22;1879;45.876;12.300;2023-02-15T01:50:26;4.60;99.90
3727;DHT22;1879;45.876;12.300;2023-02-15T01:52:57;4.60;99.90
3727;DHT22;1879;45.876;12.300;2023-02-15T01:55:28;4.60;99.90
3727;DHT22;1879;45.876;12.300;2023-02-15T01:57:56;4.60;99.90
3727;DHT22;1879;45.876;12.300;2023-02-15T02:00:24;4.50;99.90
3727;DHT22;1879;45.876;12.300;2023-02-15T02:02:54;4.50;99.90
3727;DHT22;1879;45.876;12.300;2023-02-15T02:05:22;4.50;99.90
3727;DHT22;1879;45.876;12.300;2023-02-15T02:07:51;4.60;99.90
3727;DHT22;1879;45.876;12.300;2023-02-15T02:10:21;4.60;99.90
3727;DHT22;1879;45.876;12.300;2023-02-15T02:12:51;4.60;99.90
3727;DHT22;1879;45.876;12.300;2023-02-15T02:15:21;4.50;99.90
3727;DHT22;1879;45.876;12.300;2023-02-15T02:18:02;4.40;99.90
3727;DHT22;1879;45.876;12.300;2023-02-15T02:20:50;4.50;99.90
3727;DHT22;1879;45.876;12.300;2023-02-15T02:23:27;4.40;99.90
3727;DHT22;1879;45.876;12.300;2023-02-15T02:32:12;4.60;99.90
3727;DHT22;1879;45.876;12.300;2023-02-15T02:34:51;4.50;99.90
3727;DHT22;1879;45.876;12.300;2023-02-15T02:37:28;4.40;99.90
3727;DHT22;1879;45.876;12.300;2023-02-15T02:40:03;4.40;99.90
3727;DHT22;1879;45.876;12.300;2023-02-15T02:42:35;4.40;99.90
3727;DHT22;1879;45.876;12.300;2023-02-15T02:45:05;4.40;99.90
3727;DHT22;1879;45.876;12.300;2023-02-15T02:47:36;4.40;99.90
3727;DHT22;1879;45.876;12.300;2023-02-15T02:50:08;4.30;99.90
3727;DHT22;1879;45.876;12.300;2023-02-15T02:52:38;4.30;99.90
3727;DHT22;1879;45.876;12.300;2023-02-15T02:55:10;4.20;99.90
3727;DHT22;1879;45.876;12.300;2023-02-15T02:57:43;4.20;99.90
3727;DHT22;1879;45.876;12.300;2023-02-15T03:00:12;4.10;99.90
3727;DHT22;1879;45.876;12.300;2023-02-15T03:02:44;4.10;99.90
3727;DHT22;1879;45.876;12.300;2023-02-15T03:05:16;4.10;99.90
3727;DHT22;1879;45.876;12.300;2023-02-15T03:07:48;4.10;99.90
3727;DHT22;1879;45.876;12.300;2023-02-15T03:10:18;4.10;99.90
3727;DHT22;1879;45.876;12.300;2023-02-15T03:12:47;4.20;99.90
3727;DHT22;1879;45.876;12.300;2023-02-15T03:15:19;4.10;99.90
3727;DHT22;1879;45.876;12.300;2023-02-15T03:17:49;4.10;99.90
3727;DHT22;1879;45.876;12.300;2023-02-15T03:20:22;4.10;99.90
3727;DHT22;1879;45.876;12.300;2023-02-15T03:22:54;4.10;99.90
3727;DHT22;1879;45.876;12.300;2023-02-15T03:25:25;4.10;99.90
3727;DHT22;1879;45.876;12.300;2023-02-15T03:27:56;4.00;99.90
3727;DHT22;1879;45.876;12.300;2023-02-15T03:30:25;4.00;99.90
3727;DHT22;1879;45.876;12.300;2023-02-15T03:32:53;4.00;99.90
3727;DHT22;1879;45.876;12.300;2023-02-15T03:35:25;4.00;99.90
3727;DHT22;1879;45.876;12.300;2023-02-15T03:37:56;4.00;99.90
3727;DHT22;1879;45.876;12.300;2023-02-15T03:40:29;4.00;99.90
3727;DHT22;1879;45.876;12.300;2023-02-15T03:43:19;4.00;99.90
3727;DHT22;1879;45.876;12.300;2023-02-15T03:45:51;4.00;99.90
3727;DHT22;1879;45.876;12.300;2023-02-15T03:48:24;3.90;99.90
3727;DHT22;1879;45.876;12.300;2023-02-15T03:50:55;3.90;99.90
3727;DHT22;1879;45.876;12.300;2023-02-15T03:53:42;3.90;99.90
3727;DHT22;1879;45.876;12.300;2023-02-15T03:56:11;3.90;99.90
3727;DHT22;1879;45.876;12.300;2023-02-15T03:58:39;3.90;99.90
3727;DHT22;1879;45.876;12.300;2023-02-15T04:01:26;3.90;99.90
3727;DHT22;1879;45.876;12.300;2023-02-15T04:04:19;4.00;99.90
3727;DHT22;1879;45.876;12.300;2023-02-15T04:06:48;4.00;99.90
3727;DHT22;1879;45.876;12.300;2023-02-15T04:09:15;3.90;99.90
3727;DHT22;1879;45.876;12.300;2023-02-15T04:12:00;3.80;99.90
3727;DHT22;1879;45.876;12.300;2023-02-15T04:14:27;3.80;99.90
3727;DHT22;1879;45.876;12.300;2023-02-15T04:17:11;3.80;99.90
3727;DHT22;1879;45.876;12.300;2023-02-15T04:19:38;3.70;99.90
3727;DHT22;1879;45.876;12.300;2023-02-15T04:22:26;3.70;99.90
3727;DHT22;1879;45.876;12.300;2023-02-15T04:25:10;3.60;99.90
3727;DHT22;1879;45.876;12.300;2023-02-15T04:27:38;3.70;99.90
3727;DHT22;1879;45.876;12.300;2023-02-15T04:30:07;3.70;99.90
3727;DHT22;1879;45.876;12.300;2023-02-15T04:32:35;3.70;99.90
3727;DHT22;1879;45.876;12.300;2023-02-15T04:35:02;3.70;99.90
3727;DHT22;1879;45.876;12.300;2023-02-15T04:37:32;3.70;99.90
3727;DHT22;1879;45.876;12.300;2023-02-15T04:40:02;3.80;99.90
3727;DHT22;1879;45.876;12.300;2023-02-15T04:42:31;3.80;99.90
3727;DHT22;1879;45.876;12.300;2023-02-15T04:45:00;3.90;99.90
3727;DHT22;1879;45.876;12.300;2023-02-15T04:47:27;3.90;99.90
3727;DHT22;1879;45.876;12.300;2023-02-15T04:49:54;3.90;99.90
3727;DHT22;1879;45.876;12.300;2023-02-15T04:52:21;3.90;99.90
3727;DHT22;1879;45.876;12.300;2023-02-15T04:54:50;3.80;99.90
3727;DHT22;1879;45.876;12.300;2023-02-15T04:57:17;3.80;99.90
3727;DHT22;1879;45.876;12.300;2023-02-15T04:59:44;3.80;99.90
3727;DHT22;1879;45.876;12.300;2023-02-15T05:02:11;3.80;99.90
3727;DHT22;1879;45.876;12.300;2023-02-15T05:04:38;3.80;99.90
3727;DHT22;1879;45.876;12.300;2023-02-15T05:07:05;3.80;99.90
3727;DHT22;1879;45.876;12.300;2023-02-15T05:09:31;3.90;99.90
3727;DHT22;1879;45.876;12.300;2023-02-15T05:12:00;3.90;99.90
3727;DHT22;1879;45.876;12.300;2023-02-15T05:14:27;3.80;99.90
3727;DHT22;1879;45.876;12.300;2023-02-15T05:16:54;3.80;99.90
3727;DHT22;1879;45.876;12.300;2023-02-15T05:19:21;3.60;99.90
3727;DHT22;1879;45.876;12.300;2023-02-15T05:21:50;3.60;99.90
3727;DHT22;1879;45.876;12.300;2023-02-15T05:24:17;3.60;99.90
3727;DHT22;1879;45.876;12.300;2023-02-15T05:27:03;3.50;99.90
3727;DHT22;1879;45.876;12.300;2023-02-15T05:29:47;3.40;99.90
3727;DHT22;1879;45.876;12.300;2023-02-15T05:32:14;3.40;99.90
3727;DHT22;1879;45.876;12.300;2023-02-15T05:34:41;3.40;99.90
3727;DHT22;1879;45.876;12.300;2023-02-15T05:37:08;3.40;99.90
3727;DHT22;1879;45.876;12.300;2023-02-15T05:39:35;3.40;99.90
3727;DHT22;1879;45.876;12.300;2023-02-15T05:42:04;3.40;99.90
3727;DHT22;1879;45.876;12.300;2023-02-15T05:44:31;3.30;99.90
3727;DHT22;1879;45.876;12.300;2023-02-15T05:46:58;3.30;99.90
3727;DHT22;1879;45.876;12.300;2023-02-15T05:49:25;3.30;99.90
3727;DHT22;1879;45.876;12.300;2023-02-15T05:51:52;3.30;99.90
3727;DHT22;1879;45.876;12.300;2023-02-15T05:54:19;3.20;99.90
3727;DHT22;1879;45.876;12.300;2023-02-15T05:56:46;3.30;99.90
3727;DHT22;1879;45.876;12.300;2023-02-15T05:59:14;3.30;99.90
3727;DHT22;1879;45.876;12.300;2023-02-15T06:01:41;3.40;99.90
3727;DHT22;1879;45.876;12.300;2023-02-15T06:04:08;3.40;99.90
3727;DHT22;1879;45.876;12.300;2023-02-15T06:06:35;3.40;99.90
3727;DHT22;1879;45.876;12.300;2023-02-15T06:09:02;3.30;99.90
3727;DHT22;1879;45.876;12.300;2023-02-15T06:11:29;3.30;99.90
3727;DHT22;1879;45.876;12.300;2023-02-15T06:13:56;3.30;99.90
3727;DHT22;1879;45.876;12.300;2023-02-15T06:16:24;3.40;99.90
3727;DHT22;1879;45.876;12.300;2023-02-15T06:18:51;3.40;99.90
3727;DHT22;1879;45.876;12.300;2023-02-15T06:21:18;3.40;99.90
3727;DHT22;1879;45.876;12.300;2023-02-15T06:23:45;3.40;99.90
3727;DHT22;1879;45.876;12.300;2023-02-15T06:26:12;3.40;99.90
3727;DHT22;1879;45.876;12.300;2023-02-15T06:28:39;3.50;99.90
3727;DHT22;1879;45.876;12.300;2023-02-15T06:31:06;3.40;99.90
3727;DHT22;1879;45.876;12.300;2023-02-15T06:33:35;3.40;99.90
3727;DHT22;1879;45.876;12.300;2023-02-15T06:36:02;3.40;99.90
3727;DHT22;1879;45.876;12.300;2023-02-15T06:38:30;3.50;99.90
3727;DHT22;1879;45.876;12.300;2023-02-15T06:40:57;3.50;99.90
3727;DHT22;1879;45.876;12.300;2023-02-15T06:43:24;3.50;99.90
3727;DHT22;1879;45.876;12.300;2023-02-15T06:45:51;3.60;99.90
3727;DHT22;1879;45.876;12.300;2023-02-15T06:48:18;3.60;99.90
3727;DHT22;1879;45.876;12.300;2023-02-15T06:50:46;3.60;99.90
3727;DHT22;1879;45.876;12.300;2023-02-15T06:53:14;3.70;99.90
3727;DHT22;1879;45.876;12.300;2023-02-15T06:55:41;3.70;99.90
3727;DHT22;1879;45.876;12.300;2023-02-15T06:58:08;3.80;99.90
3727;DHT22;1879;45.876;12.300;2023-02-15T07:00:37;4.00;99.90
3727;DHT22;1879;45.876;12.300;2023-02-15T07:03:04;4.00;99.90
3727;DHT22;1879;45.876;12.300;2023-02-15T07:05:33;4.10;99.90
3727;DHT22;1879;45.876;12.300;2023-02-15T07:08:02;4.30;99.90
3727;DHT22;1879;45.876;12.300;2023-02-15T07:10:29;4.40;99.90
3727;DHT22;1879;45.876;12.300;2023-02-15T07:12:56;4.40;99.90
3727;DHT22;1879;45.876;12.300;2023-02-15T07:15:22;4.50;99.90
3727;DHT22;1879;45.876;12.300;2023-02-15T07:17:50;4.60;99.90
3727;DHT22;1879;45.876;12.300;2023-02-15T07:20:19;4.70;99.90
3727;DHT22;1879;45.876;12.300;2023-02-15T07:22:47;4.80;99.90
3727;DHT22;1879;45.876;12.300;2023-02-15T07:25:16;4.90;99.90
3727;DHT22;1879;45.876;12.300;2023-02-15T07:27:43;5.00;99.90
3727;DHT22;1879;45.876;12.300;2023-02-15T07:30:13;5.10;99.90
3727;DHT22;1879;45.876;12.300;2023-02-15T07:32:43;5.20;99.90
3727;DHT22;1879;45.876;12.300;2023-02-15T07:35:28;5.40;99.90
3727;DHT22;1879;45.876;12.300;2023-02-15T07:37:55;5.50;99.90
3727;DHT22;1879;45.876;12.300;2023-02-15T07:40:23;5.70;99.90
3727;DHT22;1879;45.876;12.300;2023-02-15T07:42:50;5.80;99.90
3727;DHT22;1879;45.876;12.300;2023-02-15T07:45:20;5.90;99.90
3727;DHT22;1879;45.876;12.300;2023-02-15T07:47:47;6.00;99.90
3727;DHT22;1879;45.876;12.300;2023-02-15T07:50:15;6.20;99.90
3727;DHT22;1879;45.876;12.300;2023-02-15T07:52:42;6.30;99.90
3727;DHT22;1879;45.876;12.300;2023-02-15T07:55:09;6.40;99.90
3727;DHT22;1879;45.876;12.300;2023-02-15T07:57:42;6.50;99.90
3727;DHT22;1879;45.876;12.300;2023-02-15T08:00:11;6.60;99.90
3727;DHT22;1879;45.876;12.300;2023-02-15T08:02:39;6.80;99.90
3727;DHT22;1879;45.876;12.300;2023-02-15T08:05:06;6.90;99.90
3727;DHT22;1879;45.876;12.300;2023-02-15T08:07:33;7.10;99.90
3727;DHT22;1879;45.876;12.300;2023-02-15T08:10:00;7.20;99.90
3727;DHT22;1879;45.876;12.300;2023-02-15T08:12:27;7.30;99.90
3727;DHT22;1879;45.876;12.300;2023-02-15T08:14:55;7.50;99.90
3727;DHT22;1879;45.876;12.300;2023-02-15T08:17:22;7.60;99.90
3727;DHT22;1879;45.876;12.300;2023-02-15T08:19:49;7.70;99.90
3727;DHT22;1879;45.876;12.300;2023-02-15T08:22:16;7.90;99.90
3727;DHT22;1879;45.876;12.300;2023-02-15T08:24:43;8.00;99.90
3727;DHT22;1879;45.876;12.300;2023-02-15T08:27:11;8.10;99.90
3727;DHT22;1879;45.876;12.300;2023-02-15T08:29:38;8.20;99.90
3727;DHT22;1879;45.876;12.300;2023-02-15T08:32:10;8.20;99.90
3727;DHT22;1879;45.876;12.300;2023-02-15T08:34:40;8.30;99.80
3727;DHT22;1879;45.876;12.300;2023-02-15T08:37:07;8.40;99.30
3727;DHT22;1879;45.876;12.300;2023-02-15T08:39:35;8.60;98.70
3727;DHT22;1879;45.876;12.300;2023-02-15T08:42:02;8.70;98.20
3727;DHT22;1879;45.876;12.300;2023-02-15T08:44:29;8.80;97.50
3727;DHT22;1879;45.876;12.300;2023-02-15T08:46:56;8.90;97.50
3727;DHT22;1879;45.876;12.300;2023-02-15T08:49:30;9.10;97.30
3727;DHT22;1879;45.876;12.300;2023-02-15T08:51:57;9.20;96.90
3727;DHT22;1879;45.876;12.300;2023-02-15T08:54:24;9.30;96.20
3727;DHT22;1879;45.876;12.300;2023-02-15T08:56:51;9.40;96.40
3727;DHT22;1879;45.876;12.300;2023-02-15T08:59:19;9.60;96.10
3727;DHT22;1879;45.876;12.300;2023-02-15T09:01:48;9.70;95.50
3727;DHT22;1879;45.876;12.300;2023-02-15T09:04:15;9.80;95.40
3727;DHT22;1879;45.876;12.300;2023-02-15T09:06:44;9.90;95.10
3727;DHT22;1879;45.876;12.300;2023-02-15T09:09:12;10.00;94.00
3727;DHT22;1879;45.876;12.300;2023-02-15T09:11:42;10.10;93.20
3727;DHT22;1879;45.876;12.300;2023-02-15T09:14:11;10.20;91.80
3727;DHT22;1879;45.876;12.300;2023-02-15T09:16:40;10.40;91.50
3727;DHT22;1879;45.876;12.300;2023-02-15T09:19:07;10.50;90.90
3727;DHT22;1879;45.876;12.300;2023-02-15T09:21:36;10.50;90.60
3727;DHT22;1879;45.876;12.300;2023-02-15T09:24:06;10.70;89.90
3727;DHT22;1879;45.876;12.300;2023-02-15T09:26:35;10.80;89.50
3727;DHT22;1879;45.876;12.300;2023-02-15T09:29:03;10.90;89.00
3727;DHT22;1879;45.876;12.300;2023-02-15T09:31:31;10.90;88.60
3727;DHT22;1879;45.876;12.300;2023-02-15T09:33:59;11.00;87.40
3727;DHT22;1879;45.876;12.300;2023-02-15T09:36:29;11.10;86.30
3727;DHT22;1879;45.876;12.300;2023-02-15T09:38:57;11.10;86.20
3727;DHT22;1879;45.876;12.300;2023-02-15T09:44:31;11.30;85.80
3727;DHT22;1879;45.876;12.300;2023-02-15T09:47:21;11.40;86.40
3727;DHT22;1879;45.876;12.300;2023-02-15T09:49:59;11.50;85.60
3727;DHT22;1879;45.876;12.300;2023-02-15T09:52:35;11.60;85.70
3727;DHT22;1879;45.876;12.300;2023-02-15T09:55:22;11.70;85.70
3727;DHT22;1879;45.876;12.300;2023-02-15T09:57:57;11.80;85.10
3727;DHT22;1879;45.876;12.300;2023-02-15T10:00:30;11.80;84.80
3727;DHT22;1879;45.876;12.300;2023-02-15T10:03:21;11.90;83.70
3727;DHT22;1879;45.876;12.300;2023-02-15T10:06:02;12.00;82.30
3727;DHT22;1879;45.876;12.300;2023-02-15T10:08:54;12.10;82.30
3727;DHT22;1879;45.876;12.300;2023-02-15T10:11:36;12.20;82.40
3727;DHT22;1879;45.876;12.300;2023-02-15T10:17:12;12.40;81.50
3727;DHT22;1879;45.876;12.300;2023-02-15T10:19:48;12.50;81.10
3727;DHT22;1879;45.876;12.300;2023-02-15T10:22:27;12.60;80.70
3727;DHT22;1879;45.876;12.300;2023-02-15T10:25:15;12.60;80.70
3727;DHT22;1879;45.876;12.300;2023-02-15T10:27:47;12.80;80.50
3727;DHT22;1879;45.876;12.300;2023-02-15T10:30:20;12.90;80.70
3727;DHT22;1879;45.876;12.300;2023-02-15T10:32:57;13.00;79.40
3727;DHT22;1879;45.876;12.300;2023-02-15T10:35:32;13.00;77.90
3727;DHT22;1879;45.876;12.300;2023-02-15T10:38:19;13.10;77.80
3727;DHT22;1879;45.876;12.300;2023-02-15T10:40:56;13.30;77.70
3727;DHT22;1879;45.876;12.300;2023-02-15T10:43:46;13.40;76.80
3727;DHT22;1879;45.876;12.300;2023-02-15T10:46:24;13.60;76.30
3727;DHT22;1879;45.876;12.300;2023-02-15T10:49:07;13.70;74.80
3727;DHT22;1879;45.876;12.300;2023-02-15T10:51:51;13.80;74.40
3727;DHT22;1879;45.876;12.300;2023-02-15T10:54:30;13.90;72.40
3727;DHT22;1879;45.876;12.300;2023-02-15T10:57:04;13.90;71.70
3727;DHT22;1879;45.876;12.300;2023-02-15T10:59:47;14.00;72.70
3727;DHT22;1879;45.876;12.300;2023-02-15T11:02:26;14.20;72.60
3727;DHT22;1879;45.876;12.300;2023-02-15T11:05:14;14.40;72.10
3727;DHT22;1879;45.876;12.300;2023-02-15T11:07:44;14.40;71.20
3727;DHT22;1879;45.876;12.300;2023-02-15T11:10:24;14.50;70.60
3727;DHT22;1879;45.876;12.300;2023-02-15T11:12:55;14.60;69.60
3727;DHT22;1879;45.876;12.300;2023-02-15T11:15:28;14.70;69.20
3727;DHT22;1879;45.876;12.300;2023-02-15T11:18:01;14.80;69.20
3727;DHT22;1879;45.876;12.300;2023-02-15T11:20:33;14.90;68.10
3727;DHT22;1879;45.876;12.300;2023-02-15T11:23:02;15.00;68.50
3727;DHT22;1879;45.876;12.300;2023-02-15T11:25:31;15.10;68.10
3727;DHT22;1879;45.876;12.300;2023-02-15T11:28:00;15.20;68.50
3727;DHT22;1879;45.876;12.300;2023-02-15T11:30:40;15.30;68.40
3727;DHT22;1879;45.876;12.300;2023-02-15T11:33:16;15.40;66.90
3727;DHT22;1879;45.876;12.300;2023-02-15T11:35:49;15.60;67.10
3727;DHT22;1879;45.876;12.300;2023-02-15T11:38:19;16.00;65.90
3727;DHT22;1879;45.876;12.300;2023-02-15T11:40:49;16.80;65.30
3727;DHT22;1879;45.876;12.300;2023-02-15T11:43:21;18.40;64.00
3727;DHT22;1879;45.876;12.300;2023-02-15T11:45:52;20.00;59.10
3727;DHT22;1879;45.876;12.300;2023-02-15T11:48:21;21.30;55.20
3727;DHT22;1879;45.876;12.300;2023-02-15T11:50:48;22.70;51.90
3727;DHT22;1879;45.876;12.300;2023-02-15T11:53:17;24.00;50.10
3727;DHT22;1879;45.876;12.300;2023-02-15T11:55:48;24.90;46.60
3727;DHT22;1879;45.876;12.300;2023-02-15T11:58:23;25.60;43.70
3727;DHT22;1879;45.876;12.300;2023-02-15T12:00:58;25.70;40.50
3727;DHT22;1879;45.876;12.300;2023-02-15T12:03:35;25.40;38.70
3727;DHT22;1879;45.876;12.300;2023-02-15T12:06:13;25.80;39.10
3727;DHT22;1879;45.876;12.300;2023-02-15T12:11:14;26.60;36.60
3727;DHT22;1879;45.876;12.300;2023-02-15T12:14:04;27.10;37.80
3727;DHT22;1879;45.876;12.300;2023-02-15T12:16:40;27.50;35.20
3727;DHT22;1879;45.876;12.300;2023-02-15T12:19:23;28.30;36.50
3727;DHT22;1879;45.876;12.300;2023-02-15T12:21:52;28.50;34.50
3727;DHT22;1879;45.876;12.300;2023-02-15T12:24:22;28.40;33.80
3727;DHT22;1879;45.876;12.300;2023-02-15T12:26:58;28.20;34.00
3727;DHT22;1879;45.876;12.300;2023-02-15T12:29:28;28.30;33.10
3727;DHT22;1879;45.876;12.300;2023-02-15T12:31:57;28.60;33.40
3727;DHT22;1879;45.876;12.300;2023-02-15T12:34:29;30.20;31.50
3727;DHT22;1879;45.876;12.300;2023-02-15T12:36:57;30.30;31.70
3727;DHT22;1879;45.876;12.300;2023-02-15T12:39:28;30.30;31.50
3727;DHT22;1879;45.876;12.300;2023-02-15T12:42:02;30.90;31.40
3727;DHT22;1879;45.876;12.300;2023-02-15T12:44:31;31.40;31.20
3727;DHT22;1879;45.876;12.300;2023-02-15T12:47:01;32.30;30.30
3727;DHT22;1879;45.876;12.300;2023-02-15T12:49:31;32.40;29.70
3727;DHT22;1879;45.876;12.300;2023-02-15T12:52:00;31.60;28.60
3727;DHT22;1879;45.876;12.300;2023-02-15T12:54:35;31.20;28.90
3727;DHT22;1879;45.876;12.300;2023-02-15T12:57:20;31.60;29.30
3727;DHT22;1879;45.876;12.300;2023-02-15T12:59:49;31.50;28.50
3727;DHT22;1879;45.876;12.300;2023-02-15T13:02:22;31.80;28.60
3727;DHT22;1879;45.876;12.300;2023-02-15T13:04:51;31.80;28.40
3727;DHT22;1879;45.876;12.300;2023-02-15T13:07:19;32.60;28.90
3727;DHT22;1879;45.876;12.300;2023-02-15T13:09:47;33.50;28.60
3727;DHT22;1879;45.876;12.300;2023-02-15T13:12:21;34.20;28.00
3727;DHT22;1879;45.876;12.300;2023-02-15T13:14:51;34.70;27.40
3727;DHT22;1879;45.876;12.300;2023-02-15T13:17:21;34.20;27.10
3727;DHT22;1879;45.876;12.300;2023-02-15T13:19:59;34.40;27.40
3727;DHT22;1879;45.876;12.300;2023-02-15T13:22:33;34.60;27.00
3727;DHT22;1879;45.876;12.300;2023-02-15T13:25:11;34.30;26.50
3727;DHT22;1879;45.876;12.300;2023-02-15T13:27:41;34.60;26.50
3727;DHT22;1879;45.876;12.300;2023-02-15T13:30:19;34.80;26.30
3727;DHT22;1879;45.876;12.300;2023-02-15T13:32:49;35.10;25.70
3727;DHT22;1879;45.876;12.300;2023-02-15T13:35:20;34.60;25.90
3727;DHT22;1879;45.876;12.300;2023-02-15T13:38:07;32.50;25.80
3727;DHT22;1879;45.876;12.300;2023-02-15T13:40:40;30.20;26.20
3727;DHT22;1879;45.876;12.300;2023-02-15T13:43:19;28.80;27.60
3727;DHT22;1879;45.876;12.300;2023-02-15T13:46:02;27.50;28.20
3727;DHT22;1879;45.876;12.300;2023-02-15T13:48:39;26.20;29.20
3727;DHT22;1879;45.876;12.300;2023-02-15T13:51:16;25.60;29.50
3727;DHT22;1879;45.876;12.300;2023-02-15T13:54:05;24.60;29.80
3727;DHT22;1879;45.876;12.300;2023-02-15T13:56:43;24.20;30.80
3727;DHT22;1879;45.876;12.300;2023-02-15T13:59:37;24.20;31.40
3727;DHT22;1879;45.876;12.300;2023-02-15T14:02:30;24.20;31.60
3727;DHT22;1879;45.876;12.300;2023-02-15T14:05:25;23.90;31.90
3727;DHT22;1879;45.876;12.300;2023-02-15T14:07:59;23.40;31.50
3727;DHT22;1879;45.876;12.300;2023-02-15T14:10:52;23.50;31.90
3727;DHT22;1879;45.876;12.300;2023-02-15T14:13:53;23.50;31.50
3727;DHT22;1879;45.876;12.300;2023-02-15T14:16:31;23.40;31.50
3727;DHT22;1879;45.876;12.300;2023-02-15T14:19:09;23.10;31.50
3727;DHT22;1879;45.876;12.300;2023-02-15T14:21:43;22.80;31.90
3727;DHT22;1879;45.876;12.300;2023-02-15T14:24:25;22.50;32.40
3727;DHT22;1879;45.876;12.300;2023-02-15T14:26:59;22.10;33.00
3727;DHT22;1879;45.876;12.300;2023-02-15T14:29:41;22.10;33.20
3727;DHT22;1879;45.876;12.300;2023-02-15T14:32:12;22.00;33.10
3727;DHT22;1879;45.876;12.300;2023-02-15T14:34:44;22.10;33.70
3727;DHT22;1879;45.876;12.300;2023-02-15T14:37:19;22.10;33.60
3727;DHT22;1879;45.876;12.300;2023-02-15T14:39:55;21.90;33.70
3727;DHT22;1879;45.876;12.300;2023-02-15T14:42:47;21.80;33.20
3727;DHT22;1879;45.876;12.300;2023-02-15T14:45:22;21.60;33.40
3727;DHT22;1879;45.876;12.300;2023-02-15T14:47:57;21.80;33.70
3727;DHT22;1879;45.876;12.300;2023-02-15T14:50:42;21.90;33.30
3727;DHT22;1879;45.876;12.300;2023-02-15T14:53:23;21.90;33.30
3727;DHT22;1879;45.876;12.300;2023-02-15T14:59:16;22.00;33.40
3727;DHT22;1879;45.876;12.300;2023-02-15T15:01:52;21.90;33.30
3727;DHT22;1879;45.876;12.300;2023-02-15T15:04:30;21.60;33.00
3727;DHT22;1879;45.876;12.300;2023-02-15T15:07:02;21.60;33.70
3727;DHT22;1879;45.876;12.300;2023-02-15T15:09:34;21.60;33.20
3727;DHT22;1879;45.876;12.300;2023-02-15T15:12:40;21.40;33.60
3727;DHT22;1879;45.876;12.300;2023-02-15T15:15:12;21.30;34.20
3727;DHT22;1879;45.876;12.300;2023-02-15T15:17:56;21.30;34.10
3727;DHT22;1879;45.876;12.300;2023-02-15T15:20:44;21.40;34.30
3727;DHT22;1879;45.876;12.300;2023-02-15T15:23:38;21.40;34.00
3727;DHT22;1879;45.876;12.300;2023-02-15T15:26:22;21.40;34.20
3727;DHT22;1879;45.876;12.300;2023-02-15T15:28:57;21.40;34.10
3727;DHT22;1879;45.876;12.300;2023-02-15T15:31:32;21.40;34.20
3727;DHT22;1879;45.876;12.300;2023-02-15T15:34:43;21.30;34.10
3727;DHT22;1879;45.876;12.300;2023-02-15T15:37:42;21.30;34.10
3727;DHT22;1879;45.876;12.300;2023-02-15T15:40:40;21.20;34.20
3727;DHT22;1879;45.876;12.300;2023-02-15T15:46:19;20.60;35.10
3727;DHT22;1879;45.876;12.300;2023-02-15T15:48:51;20.40;35.50
3727;DHT22;1879;45.876;12.300;2023-02-15T15:51:21;20.30;35.30
3727;DHT22;1879;45.876;12.300;2023-02-15T15:53:50;20.20;35.40
3727;DHT22;1879;45.876;12.300;2023-02-15T15:56:20;20.20;35.60
3727;DHT22;1879;45.876;12.300;2023-02-15T15:58:51;20.10;35.70
3727;DHT22;1879;45.876;12.300;2023-02-15T16:01:26;19.90;35.90
3727;DHT22;1879;45.876;12.300;2023-02-15T16:03:56;19.70;36.80
3727;DHT22;1879;45.876;12.300;2023-02-15T16:06:31;19.50;36.40
3727;DHT22;1879;45.876;12.300;2023-02-15T16:09:10;19.40;36.60
3727;DHT22;1879;45.876;12.300;2023-02-15T16:11:37;19.10;36.80
3727;DHT22;1879;45.876;12.300;2023-02-15T16:14:11;18.90;37.10
3727;DHT22;1879;45.876;12.300;2023-02-15T16:16:41;18.70;37.50
3727;DHT22;1879;45.876;12.300;2023-02-15T16:19:18;18.50;37.70
3727;DHT22;1879;45.876;12.300;2023-02-15T16:21:47;18.40;38.00
3727;DHT22;1879;45.876;12.300;2023-02-15T16:27:23;17.90;38.50
3727;DHT22;1879;45.876;12.300;2023-02-15T16:29:54;17.60;39.10
3727;DHT22;1879;45.876;12.300;2023-02-15T16:32:23;17.40;39.30
3727;DHT22;1879;45.876;12.300;2023-02-15T16:34:52;17.30;39.60
3727;DHT22;1879;45.876;12.300;2023-02-15T16:37:20;17.10;40.00
3727;DHT22;1879;45.876;12.300;2023-02-15T16:39:50;16.90;40.20
3727;DHT22;1879;45.876;12.300;2023-02-15T16:42:17;16.70;40.40
3727;DHT22;1879;45.876;12.300;2023-02-15T16:44:46;16.50;40.70
3727;DHT22;1879;45.876;12.300;2023-02-15T16:47:18;16.30;41.10
3727;DHT22;1879;45.876;12.300;2023-02-15T16:49:49;16.10;41.60
3727;DHT22;1879;45.876;12.300;2023-02-15T16:52:21;16.00;42.00